Time;durP1;ratioP1;P1;durP2;ratioP2;P2;SDS_P1;SDS_P2;PMS_P1;PMS_P2;Temp;Humidity;BMP_temperature;BMP_pressure;BME280_temperature;BME280_humidity;BME280_pressure;Samples;Min_cycle;Max_cycle;Signal;HPM_P1;HPM_P2
2021/09/17 00:00:46;;;;;;;14.02;12.73;;;16.50;99.90;;;;;;5128723;28;20151;-70
2021/09/17 00:03:12;;;;;;;15.23;13.30;;;16.50;99.90;;;;;;5128883;28;20192;-70
2021/09/17 00:05:38;;;;;;;16.95;14.50;;;16.50;99.90;;;;;;5110072;28;20181;-70
2021/09/17 00:08:04;;;;;;;17.15;13.68;;;16.50;99.90;;;;;;5128404;28;20283;-70
2021/09/17 00:10:30;;;;;;;18.90;15.95;;;16.50;99.90;;;;;;5128610;28;20166;-70
2021/09/17 00:12:55;;;;;;;17.48;15.70;;;16.50;99.90;;;;;;5128225;28;20209;-70
2021/09/17 00:15:22;;;;;;;24.13;16.73;;;16.60;99.90;;;;;;5128265;28;20190;-70
2021/09/17 00:17:47;;;;;;;17.15;15.32;;;16.50;99.90;;;;;;5128377;28;20237;-70
2021/09/17 00:20:15;;;;;;;19.40;16.00;;;16.50;99.90;;;;;;5128505;28;20159;-70
2021/09/17 00:22:42;;;;;;;20.13;15.13;;;16.50;99.90;;;;;;5128481;28;20222;-70
2021/09/17 00:25:09;;;;;;;17.83;15.85;;;16.50;99.90;;;;;;5109660;28;20200;-70
2021/09/17 00:27:35;;;;;;;17.58;15.35;;;16.60;99.90;;;;;;5127783;28;20171;-70
2021/09/17 00:30:01;;;;;;;19.38;14.63;;;16.60;99.90;;;;;;5128402;28;20282;-70
2021/09/17 00:32:26;;;;;;;17.25;15.48;;;16.70;99.90;;;;;;5128011;28;20159;-70
2021/09/17 00:34:52;;;;;;;23.55;16.55;;;16.70;99.90;;;;;;5127869;28;20189;-70
2021/09/17 00:37:18;;;;;;;23.70;16.95;;;16.80;99.90;;;;;;5109682;28;20190;-70
2021/09/17 00:39:44;;;;;;;21.58;17.15;;;16.70;99.90;;;;;;5128065;28;20169;-70
2021/09/17 00:42:10;;;;;;;21.88;18.30;;;16.50;99.90;;;;;;5127135;28;20191;-70
2021/09/17 00:44:36;;;;;;;23.27;19.25;;;16.50;99.90;;;;;;5127771;28;20171;-70
2021/09/17 00:47:02;;;;;;;29.38;20.65;;;16.50;99.90;;;;;;5127970;28;20162;-70
2021/09/17 00:49:28;;;;;;;27.42;20.00;;;16.70;99.90;;;;;;5127739;28;20165;-70
2021/09/17 00:51:54;;;;;;;25.88;20.67;;;16.70;99.90;;;;;;5127849;28;20222;-70
2021/09/17 00:54:20;;;;;;;32.05;20.95;;;16.70;99.90;;;;;;5127366;28;20179;-70
2021/09/17 00:56:46;;;;;;;29.38;22.70;;;16.70;99.90;;;;;;5127186;28;20201;-70
2021/09/17 00:59:12;;;;;;;32.55;21.95;;;16.80;99.90;;;;;;5127688;28;20219;-70
2021/09/17 01:01:39;;;;;;;26.75;20.52;;;16.80;99.90;;;;;;5127413;28;20499;-70
2021/09/17 01:04:08;;;;;;;27.08;19.70;;;16.70;99.90;;;;;;5127442;28;20182;-70
2021/09/17 01:06:35;;;;;;;29.17;18.52;;;16.60;99.90;;;;;;5127467;28;20166;-70
2021/09/17 01:09:02;;;;;;;32.80;18.48;;;16.60;99.90;;;;;;5127328;28;20213;-70
2021/09/17 01:11:28;;;;;;;24.63;18.73;;;16.60;99.90;;;;;;5108832;28;20170;-70
2021/09/17 01:13:55;;;;;;;25.92;20.50;;;16.50;99.90;;;;;;5127347;28;20668;-70
2021/09/17 01:16:20;;;;;;;25.80;20.02;;;16.50;99.90;;;;;;5127280;28;20194;-70
2021/09/17 01:18:46;;;;;;;29.77;22.80;;;16.50;99.90;;;;;;5127444;28;20158;-70
2021/09/17 01:21:12;;;;;;;34.05;24.05;;;16.50;99.90;;;;;;5127463;28;20162;-70
2021/09/17 01:23:38;;;;;;;31.05;23.88;;;16.50;99.90;;;;;;5127139;28;20567;-70
2021/09/17 01:26:04;;;;;;;34.28;24.88;;;16.50;99.90;;;;;;5126734;28;20196;-70
2021/09/17 01:28:32;;;;;;;31.35;23.85;;;16.40;99.90;;;;;;5127168;28;20154;-70
2021/09/17 01:31:00;;;;;;;35.58;25.48;;;16.40;99.90;;;;;;5126966;28;20159;-70
2021/09/17 01:33:26;;;;;;;31.55;25.98;;;16.40;99.90;;;;;;5127104;28;20155;-70
2021/09/17 01:36:04;;;;;;;31.52;24.88;;;16.40;99.90;;;;;;5108376;28;20190;-70
2021/09/17 01:38:32;;;;;;;34.38;26.50;;;16.40;99.90;;;;;;5127028;28;20158;-70
2021/09/17 01:40:58;;;;;;;37.90;27.30;;;16.30;99.90;;;;;;5108200;28;20546;-70
2021/09/17 01:43:25;;;;;;;38.67;26.15;;;16.40;99.90;;;;;;5126977;28;20159;-71
2021/09/17 01:45:51;;;;;;;36.05;26.17;;;16.30;99.90;;;;;;5126456;28;20227;-71
2021/09/17 01:48:17;;;;;;;37.00;27.67;;;16.40;99.90;;;;;;5126663;28;20166;-70
2021/09/17 01:50:43;;;;;;;38.25;27.13;;;16.60;99.90;;;;;;5126868;28;20162;-70
2021/09/17 01:53:08;;;;;;;34.88;28.05;;;16.40;99.90;;;;;;5127024;28;20165;-70
2021/09/17 01:55:34;;;;;;;33.67;27.77;;;16.30;99.90;;;;;;5125581;28;20170;-70
2021/09/17 01:58:00;;;;;;;38.63;27.50;;;16.20;99.90;;;;;;5126311;28;20174;-70
2021/09/17 02:00:26;;;;;;;40.72;29.40;;;16.20;99.90;;;;;;5126923;28;20183;-70
2021/09/17 02:02:52;;;;;;;41.40;29.70;;;16.20;99.90;;;;;;5126651;28;20151;-70
2021/09/17 02:05:18;;;;;;;37.97;28.92;;;16.20;99.90;;;;;;5126520;28;20238;-70
2021/09/17 02:07:45;;;;;;;42.17;30.05;;;16.10;99.90;;;;;;5126634;28;20166;-70
2021/09/17 02:10:12;;;;;;;39.58;28.52;;;16.20;99.90;;;;;;5126702;28;20241;-70
2021/09/17 02:12:38;;;;;;;41.20;30.42;;;16.20;99.90;;;;;;5126239;28;20248;-70
2021/09/17 02:15:09;;;;;;;41.28;30.10;;;16.20;99.90;;;;;;5126298;28;20170;-70
2021/09/17 02:17:35;;;;;;;40.35;31.45;;;16.10;99.90;;;;;;5126329;28;20224;-70
2021/09/17 02:20:03;;;;;;;45.70;32.58;;;16.20;99.90;;;;;;5126570;28;20154;-70
2021/09/17 02:22:29;;;;;;;41.42;32.33;;;16.30;99.90;;;;;;5126557;28;20158;-70
2021/09/17 02:24:55;;;;;;;50.75;34.97;;;16.30;99.90;;;;;;5126220;28;20195;-70
2021/09/17 02:27:21;;;;;;;47.65;34.55;;;16.40;99.90;;;;;;5125972;28;20198;-70
2021/09/17 02:29:47;;;;;;;50.60;35.33;;;16.20;99.90;;;;;;5126678;28;20198;-70
2021/09/17 02:32:13;;;;;;;58.90;36.25;;;16.30;99.90;;;;;;5126557;28;20162;-70
2021/09/17 02:34:39;;;;;;;44.22;33.53;;;16.30;99.90;;;;;;5126147;28;20488;-70
2021/09/17 02:37:05;;;;;;;51.45;36.33;;;16.30;99.90;;;;;;5126392;28;20217;-70
2021/09/17 02:39:31;;;;;;;53.80;34.58;;;16.30;99.90;;;;;;5126571;28;20163;-70
2021/09/17 02:41:57;;;;;;;48.90;35.15;;;16.30;99.90;;;;;;5125933;28;20175;-70
2021/09/17 02:44:23;;;;;;;49.15;34.75;;;16.30;99.90;;;;;;5126308;28;20162;-70
2021/09/17 02:46:49;;;;;;;58.13;36.15;;;16.20;99.90;;;;;;5126341;28;20231;-70
2021/09/17 02:49:15;;;;;;;57.10;39.08;;;16.40;99.90;;;;;;5126535;28;20170;-70
2021/09/17 02:51:40;;;;;;;67.68;39.10;;;16.70;99.90;;;;;;5126425;28;20163;-70
2021/09/17 02:54:06;;;;;;;61.58;40.47;;;16.60;99.90;;;;;;5126057;28;20167;-70
2021/09/17 02:56:32;;;;;;;60.17;40.53;;;16.50;99.90;;;;;;5125562;28;20273;-70
2021/09/17 02:58:58;;;;;;;58.72;39.38;;;16.50;99.90;;;;;;5126265;28;20151;-70
2021/09/17 03:01:24;;;;;;;55.67;39.55;;;16.40;99.90;;;;;;5107897;28;20162;-70
2021/09/17 03:03:50;;;;;;;61.95;40.63;;;16.20;99.90;;;;;;5126326;28;20619;-70
2021/09/17 03:06:15;;;;;;;67.43;42.58;;;16.30;99.90;;;;;;5127688;28;20590;-70
2021/09/17 03:08:41;;;;;;;60.58;41.42;;;16.30;99.90;;;;;;5129690;28;20219;-70
2021/09/17 03:11:07;;;;;;;68.78;42.05;;;16.10;99.90;;;;;;5129473;28;20220;-70
2021/09/17 03:13:33;;;;;;;59.22;40.00;;;16.10;99.90;;;;;;5129652;28;20162;-70
2021/09/17 03:16:00;;;;;;;57.75;39.63;;;16.00;99.90;;;;;;5111012;28;20266;-70
2021/09/17 03:18:25;;;;;;;65.57;40.60;;;15.90;99.90;;;;;;5129501;28;20187;-70
2021/09/17 03:20:51;;;;;;;63.30;42.60;;;15.80;99.90;;;;;;5129490;28;20170;-71
2021/09/17 03:23:19;;;;;;;66.07;41.95;;;16.00;99.90;;;;;;5129810;28;20155;-70
2021/09/17 03:25:44;;;;;;;63.25;42.22;;;16.10;99.90;;;;;;5129246;28;20174;-70
2021/09/17 03:28:10;;;;;;;65.90;43.38;;;16.00;99.90;;;;;;5129045;28;20170;-70
2021/09/17 03:30:36;;;;;;;72.15;43.90;;;16.30;99.90;;;;;;5129262;28;20220;-70
2021/09/17 03:33:02;;;;;;;74.88;45.13;;;16.40;99.90;;;;;;5129422;28;20170;-70
2021/09/17 03:35:28;;;;;;;75.07;45.05;;;16.30;99.90;;;;;;5129025;28;20163;-70
2021/09/17 03:37:54;;;;;;;72.82;45.50;;;16.10;99.90;;;;;;5129348;28;20178;-70
2021/09/17 03:40:19;;;;;;;72.18;45.45;;;16.00;99.90;;;;;;5129387;28;20191;-70
2021/09/17 03:42:45;;;;;;;72.75;45.75;;;15.80;99.90;;;;;;5129000;28;20170;-70
2021/09/17 03:45:12;;;;;;;77.95;46.60;;;15.70;99.90;;;;;;5110602;28;20246;-70
2021/09/17 03:47:38;;;;;;;68.80;44.13;;;15.60;99.90;;;;;;5129236;28;20170;-70
2021/09/17 03:50:05;;;;;;;68.72;43.22;;;15.50;99.90;;;;;;5128970;28;20160;-70
2021/09/17 03:52:31;;;;;;;66.90;41.63;;;15.50;99.90;;;;;;5129101;28;20162;-70
2021/09/17 03:54:57;;;;;;;68.93;43.45;;;15.50;99.90;;;;;;5128580;28;20627;-70
2021/09/17 03:57:23;;;;;;;61.78;42.33;;;15.40;99.90;;;;;;5128471;28;20220;-70
2021/09/17 03:59:49;;;;;;;67.10;43.75;;;15.30;99.90;;;;;;5110690;28;20707;-70
2021/09/17 04:02:14;;;;;;;60.55;40.60;;;15.30;99.90;;;;;;5128339;28;20167;-70
2021/09/17 04:04:40;;;;;;;70.53;44.67;;;15.40;99.90;;;;;;5128656;28;20216;-70
2021/09/17 04:07:07;;;;;;;77.18;47.03;;;15.40;99.90;;;;;;5128643;28;20163;-70
2021/09/17 04:09:33;;;;;;;79.47;46.60;;;15.50;99.90;;;;;;5128315;28;20210;-71
2021/09/17 04:12:00;;;;;;;71.35;44.03;;;15.50;99.90;;;;;;5128055;28;20262;-70
2021/09/17 04:14:26;;;;;;;72.93;47.05;;;15.50;99.90;;;;;;5128553;28;20155;-70
2021/09/17 04:16:52;;;;;;;77.95;47.75;;;15.40;99.90;;;;;;5127722;28;20216;-70
2021/09/17 04:19:18;;;;;;;71.32;45.70;;;15.40;99.90;;;;;;5128151;28;20167;-70
2021/09/17 04:21:43;;;;;;;68.57;43.63;;;15.40;99.90;;;;;;5128458;28;20163;-71
2021/09/17 04:24:09;;;;;;;62.78;43.45;;;15.30;99.90;;;;;;5128010;28;20158;-70
2021/09/17 04:26:35;;;;;;;67.30;43.55;;;15.30;99.90;;;;;;5127765;28;20171;-70
2021/09/17 04:29:01;;;;;;;70.18;45.55;;;15.20;99.90;;;;;;5127741;28;20526;-70
2021/09/17 04:31:27;;;;;;;77.10;45.47;;;15.30;99.90;;;;;;5128059;28;20158;-70
2021/09/17 04:33:53;;;;;;;67.05;44.70;;;15.20;99.90;;;;;;5109544;28;20175;-70
2021/09/17 04:36:19;;;;;;;71.93;46.88;;;15.20;99.90;;;;;;5127847;28;20190;-70
2021/09/17 04:38:45;;;;;;;74.53;45.40;;;15.10;99.90;;;;;;5128120;28;20218;-70
2021/09/17 04:41:11;;;;;;;70.10;43.53;;;15.00;99.90;;;;;;5127861;28;20222;-70
2021/09/17 04:43:36;;;;;;;70.88;45.20;;;15.00;99.90;;;;;;5127990;28;20571;-71
2021/09/17 04:46:02;;;;;;;75.25;48.72;;;15.00;99.90;;;;;;5127761;28;20177;-70
2021/09/17 04:48:28;;;;;;;84.63;51.33;;;15.00;99.90;;;;;;5128095;28;20169;-70
2021/09/17 04:50:54;;;;;;;83.57;51.30;;;15.00;99.90;;;;;;5109241;28;20189;-70
2021/09/17 04:53:20;;;;;;;84.80;51.08;;;15.00;99.90;;;;;;5127735;28;20533;-70
2021/09/17 04:55:47;;;;;;;84.05;50.42;;;15.10;99.90;;;;;;5127381;28;20672;-70
2021/09/17 04:58:13;;;;;;;90.97;52.25;;;15.00;99.90;;;;;;5127443;28;20226;-70
2021/09/17 05:00:39;;;;;;;99.97;53.47;;;14.80;99.90;;;;;;5127855;28;20163;-70
2021/09/17 05:03:06;;;;;;;94.53;53.40;;;14.80;99.90;;;;;;5127334;28;20215;-70
2021/09/17 05:05:31;;;;;;;104.30;55.95;;;14.80;99.90;;;;;;5127170;28;20171;-70
2021/09/17 05:07:57;;;;;;;100.32;56.80;;;14.80;99.90;;;;;;5109030;28;20170;-70
2021/09/17 05:10:23;;;;;;;105.68;57.05;;;14.80;99.90;;;;;;5127197;28;20179;-70
2021/09/17 05:12:49;;;;;;;97.57;56.88;;;14.80;99.90;;;;;;5126981;28;20174;-70
2021/09/17 05:15:16;;;;;;;105.70;57.80;;;14.70;99.90;;;;;;5127108;28;20159;-70
2021/09/17 05:17:42;;;;;;;103.60;56.00;;;14.80;99.90;;;;;;5127085;28;20190;-70
2021/09/17 05:20:08;;;;;;;109.15;57.85;;;14.80;99.90;;;;;;5127256;28;20159;-70
2021/09/17 05:22:34;;;;;;;110.22;57.60;;;14.80;99.90;;;;;;5127191;28;20600;-70
2021/09/17 05:25:00;;;;;;;110.43;57.15;;;14.90;99.90;;;;;;5126669;28;20167;-70
2021/09/17 05:27:26;;;;;;;114.68;60.20;;;14.90;99.90;;;;;;5108242;28;20205;-70
2021/09/17 05:29:52;;;;;;;117.85;62.42;;;15.10;99.90;;;;;;5108074;28;20466;-70
2021/09/17 05:32:20;;;;;;;114.55;57.40;;;15.10;99.90;;;;;;5126777;28;20167;-70
2021/09/17 05:34:47;;;;;;;114.18;59.95;;;14.90;99.90;;;;;;5126465;28;20530;-70
2021/09/17 05:37:13;;;;;;;109.60;56.30;;;14.90;99.90;;;;;;5126814;28;20186;-70
2021/09/17 05:39:39;;;;;;;116.68;58.97;;;14.90;99.90;;;;;;5126832;28;20163;-70
2021/09/17 05:42:05;;;;;;;111.07;56.80;;;14.90;99.90;;;;;;5126195;28;20257;-70
2021/09/17 05:44:31;;;;;;;116.80;59.92;;;15.00;99.90;;;;;;5126527;28;20155;-70
2021/09/17 05:46:57;;;;;;;111.22;59.38;;;15.10;99.90;;;;;;5125717;28;20177;-70
2021/09/17 05:49:23;;;;;;;114.90;59.95;;;15.10;99.90;;;;;;5125819;28;20158;-70
2021/09/17 05:51:48;;;;;;;116.53;58.22;;;15.20;99.90;;;;;;5108080;28;20252;-70
2021/09/17 05:54:14;;;;;;;115.32;57.38;;;15.40;99.90;;;;;;5126406;28;20167;-70
2021/09/17 05:56:40;;;;;;;109.35;55.47;;;15.40;99.90;;;;;;5107738;28;20195;-70
2021/09/17 05:59:06;;;;;;;125.72;64.75;;;15.40;99.90;;;;;;5125475;28;20737;-70
2021/09/17 06:01:32;;;;;;;111.35;56.58;;;15.70;99.90;;;;;;5108248;28;20170;-70
2021/09/17 06:03:58;;;;;;;102.88;56.22;;;15.60;99.90;;;;;;5126129;28;20228;-70
2021/09/17 06:06:24;;;;;;;105.43;54.20;;;15.50;99.90;;;;;;5107848;28;20201;-70
2021/09/17 06:08:49;;;;;;;109.55;55.90;;;15.60;99.90;;;;;;5126362;28;20516;-70
2021/09/17 06:11:16;;;;;;;105.80;54.05;;;15.60;99.90;;;;;;5126365;28;20159;-70
2021/09/17 06:13:42;;;;;;;107.28;53.95;;;15.50;99.90;;;;;;5126456;28;20181;-70
2021/09/17 06:16:08;;;;;;;102.22;51.95;;;15.50;99.90;;;;;;5126293;28;20186;-70
2021/09/17 06:18:34;;;;;;;98.97;51.45;;;15.60;99.90;;;;;;5108169;28;20163;-70
2021/09/17 06:21:00;;;;;;;106.85;53.58;;;15.50;99.90;;;;;;5126702;28;20211;-70
2021/09/17 06:23:27;;;;;;;106.07;52.03;;;15.70;99.90;;;;;;5126603;28;20163;-70
2021/09/17 06:25:53;;;;;;;115.53;54.50;;;15.90;99.90;;;;;;5126157;28;20166;-70
2021/09/17 06:28:19;;;;;;;103.22;53.15;;;16.10;99.90;;;;;;5125735;28;20185;-70
2021/09/17 06:30:45;;;;;;;113.35;53.00;;;15.90;99.90;;;;;;5126185;28;20155;-71
2021/09/17 06:33:10;;;;;;;97.97;50.67;;;15.90;99.90;;;;;;5126046;28;20171;-70
2021/09/17 06:35:36;;;;;;;99.95;49.72;;;15.80;99.90;;;;;;5125415;28;20170;-70
2021/09/17 06:38:02;;;;;;;100.03;51.35;;;15.90;99.90;;;;;;5126200;28;20629;-70
2021/09/17 06:40:28;;;;;;;96.18;51.17;;;15.90;99.90;;;;;;5126897;28;20162;-70
2021/09/17 06:42:55;;;;;;;95.70;49.30;;;16.00;99.90;;;;;;5129163;28;20174;-70
2021/09/17 06:45:21;;;;;;;92.35;47.42;;;15.80;99.90;;;;;;5110773;28;20163;-70
2021/09/17 06:47:54;;;;;;;92.88;47.72;;;15.90;99.90;;;;;;5130127;28;20173;-70
2021/09/17 06:50:23;;;;;;;86.60;46.50;;;16.00;99.90;;;;;;5111161;28;20170;-71
2021/09/17 06:52:50;;;;;;;88.97;45.35;;;15.90;99.90;;;;;;5111288;28;20173;-70
2021/09/17 06:55:34;;;;;;;84.70;46.58;;;15.70;99.90;;;;;;5129539;28;20239;-70
2021/09/17 06:58:04;;;;;;;86.72;46.40;;;15.80;99.90;;;;;;5111064;28;20162;-70
2021/09/17 07:00:35;;;;;;;80.93;45.58;;;16.00;99.90;;;;;;5110793;28;20166;-70
2021/09/17 07:03:01;;;;;;;77.22;44.70;;;15.90;99.90;;;;;;5129431;28;20183;-70
2021/09/17 07:05:28;;;;;;;69.90;42.00;;;15.80;99.90;;;;;;5129409;28;20173;-71
2021/09/17 07:08:01;;;;;;;66.22;40.03;;;15.90;99.90;;;;;;5129683;28;20247;-70
2021/09/17 07:10:28;;;;;;;63.20;39.22;;;16.00;99.90;;;;;;5129687;28;20175;-70
2021/09/17 07:12:54;;;;;;;64.47;40.13;;;16.00;99.90;;;;;;5129513;28;20294;-70
2021/09/17 07:15:19;;;;;;;65.53;38.67;;;16.20;99.90;;;;;;5129512;28;20178;-70
2021/09/17 07:17:45;;;;;;;54.05;37.20;;;16.20;99.90;;;;;;5129387;28;20193;-70
2021/09/17 07:20:11;;;;;;;54.33;36.15;;;16.00;99.90;;;;;;5128554;28;20642;-70
2021/09/17 07:22:37;;;;;;;51.55;35.47;;;16.10;99.90;;;;;;5129626;28;20218;-70
2021/09/17 07:25:04;;;;;;;56.63;35.65;;;16.20;99.90;;;;;;5129265;28;20170;-70
2021/09/17 07:27:31;;;;;;;52.20;36.03;;;16.40;99.90;;;;;;5128960;28;20178;-70
2021/09/17 07:29:58;;;;;;;56.30;35.15;;;16.30;99.90;;;;;;5129322;28;20159;-70
2021/09/17 07:32:24;;;;;;;51.53;34.03;;;16.60;99.90;;;;;;5129143;28;20183;-70
2021/09/17 07:34:49;;;;;;;45.08;32.85;;;16.60;99.90;;;;;;5129005;28;20793;-70
2021/09/17 07:37:15;;;;;;;46.15;32.10;;;16.60;99.90;;;;;;5129099;28;20190;-70
2021/09/17 07:39:42;;;;;;;43.05;30.77;;;16.50;99.90;;;;;;5129108;28;20165;-70
2021/09/17 07:42:08;;;;;;;50.83;32.85;;;16.50;99.90;;;;;;5128663;28;20237;-70
2021/09/17 07:44:37;;;;;;;46.58;32.88;;;16.60;99.90;;;;;;5129094;28;20159;-70
2021/09/17 07:47:04;;;;;;;49.90;32.58;;;16.50;99.90;;;;;;5129076;28;20237;-71
2021/09/17 07:49:30;;;;;;;47.67;32.83;;;16.60;99.90;;;;;;5129075;28;20162;-70
2021/09/17 07:51:56;;;;;;;47.55;32.40;;;16.70;99.90;;;;;;5128790;28;20163;-70
2021/09/17 07:54:23;;;;;;;50.63;33.10;;;16.90;99.90;;;;;;5128863;28;20166;-70
2021/09/17 07:56:50;;;;;;;49.78;32.75;;;16.80;99.90;;;;;;5128208;28;20187;-70
2021/09/17 07:59:16;;;;;;;50.05;34.17;;;17.10;99.90;;;;;;5110691;28;20188;-70
2021/09/17 08:01:42;;;;;;;56.58;32.22;;;17.20;99.90;;;;;;5128742;28;20159;-70
2021/09/17 08:04:07;;;;;;;46.33;32.20;;;17.00;99.90;;;;;;5110283;28;20159;-70
2021/09/17 08:06:33;;;;;;;44.53;32.45;;;16.80;99.90;;;;;;5128416;28;20175;-70
2021/09/17 08:08:59;;;;;;;46.30;30.67;;;16.90;99.90;;;;;;5110076;28;20297;-70
2021/09/17 08:11:25;;;;;;;45.05;30.67;;;16.90;99.90;;;;;;5128309;28;20175;-70
2021/09/17 08:13:50;;;;;;;39.30;30.17;;;16.90;99.90;;;;;;5128456;28;20180;-70
2021/09/17 08:16:16;;;;;;;40.40;30.48;;;17.00;99.90;;;;;;5128037;28;20609;-70
2021/09/17 08:18:45;;;;;;;47.70;32.38;;;17.30;99.90;;;;;;5110229;28;20177;-70
2021/09/17 08:21:11;;;;;;;50.53;33.63;;;17.40;99.90;;;;;;5128122;28;20170;-70
2021/09/17 08:23:36;;;;;;;51.00;33.53;;;17.50;99.90;;;;;;5128284;28;20184;-70
2021/09/17 08:26:03;;;;;;;47.35;33.30;;;17.70;99.90;;;;;;5109568;28;20175;-70
2021/09/17 08:28:30;;;;;;;46.10;32.72;;;17.80;99.90;;;;;;5109652;28;20170;-70
2021/09/17 08:30:57;;;;;;;47.20;33.38;;;17.80;99.90;;;;;;5128219;28;20166;-70
2021/09/17 08:33:23;;;;;;;43.30;31.23;;;17.70;99.90;;;;;;5128010;28;20173;-69
2021/09/17 08:35:49;;;;;;;51.13;33.38;;;17.70;99.90;;;;;;5127898;28;20174;-70
2021/09/17 08:38:15;;;;;;;45.00;32.85;;;17.70;99.90;;;;;;5128258;28;20212;-70
2021/09/17 08:40:42;;;;;;;47.30;33.00;;;17.90;99.90;;;;;;5128065;28;20159;-70
2021/09/17 08:43:08;;;;;;;50.50;32.78;;;18.10;99.90;;;;;;5127490;28;20170;-70
2021/09/17 08:45:34;;;;;;;49.20;32.33;;;18.00;99.90;;;;;;5109555;28;20166;-70
2021/09/17 08:48:01;;;;;;;47.05;32.40;;;17.90;99.90;;;;;;5128122;28;20183;-70
2021/09/17 08:50:28;;;;;;;46.40;31.42;;;17.80;99.90;;;;;;5127762;28;20599;-70
2021/09/17 08:52:54;;;;;;;46.00;31.27;;;17.80;99.90;;;;;;5109588;28;20186;-70
2021/09/17 08:55:20;;;;;;;48.78;33.30;;;18.00;99.90;;;;;;5127325;28;20650;-70
2021/09/17 08:57:47;;;;;;;45.58;30.95;;;18.00;99.90;;;;;;5127318;28;20659;-70
2021/09/17 09:00:30;;;;;;;48.25;32.10;;;18.10;99.90;;;;;;5127667;28;20225;-70
2021/09/17 09:02:57;;;;;;;48.00;32.08;;;18.10;99.90;;;;;;5127201;28;20176;-70
2021/09/17 09:05:38;;;;;;;53.17;32.90;;;18.30;99.90;;;;;;5127305;28;20175;-70
2021/09/17 09:08:05;;;;;;;40.50;31.40;;;18.60;99.90;;;;;;5127277;28;20170;-70
2021/09/17 09:10:31;;;;;;;47.17;31.38;;;18.70;99.90;;;;;;5127262;28;20163;-70
2021/09/17 09:13:00;;;;;;;41.53;30.95;;;18.80;99.90;;;;;;5127080;28;20624;-70
2021/09/17 09:15:29;;;;;;;45.58;31.40;;;18.60;99.90;;;;;;5127255;28;20169;-70
2021/09/17 09:18:18;;;;;;;42.75;29.98;;;18.90;99.90;;;;;;5127121;28;20217;-70
2021/09/17 09:20:46;;;;;;;45.65;30.45;;;19.20;99.90;;;;;;5127185;28;20154;-69
2021/09/17 09:23:29;;;;;;;40.88;29.27;;;19.10;99.90;;;;;;5127369;28;20150;-70
2021/09/17 09:26:08;;;;;;;46.67;28.70;;;19.20;99.90;;;;;;5126839;28;20182;-69
2021/09/17 09:28:42;;;;;;;44.45;29.85;;;19.40;99.90;;;;;;5126758;28;20231;-69
2021/09/17 09:31:19;;;;;;;40.17;27.80;;;19.30;99.90;;;;;;5108917;28;20644;-69
2021/09/17 09:33:46;;;;;;;36.80;27.67;;;19.40;99.90;;;;;;5127020;28;20146;-69
2021/09/17 09:36:13;;;;;;;38.35;26.00;;;19.20;99.90;;;;;;5126585;28;20187;-69
2021/09/17 09:38:54;;;;;;;40.30;28.00;;;19.30;99.90;;;;;;5126900;28;20163;-68
2021/09/17 09:41:25;;;;;;;39.42;27.58;;;19.50;99.90;;;;;;5126827;28;20166;-68
2021/09/17 09:43:53;;;;;;;39.67;27.27;;;19.60;99.90;;;;;;5126840;28;20166;-68
2021/09/17 09:46:35;;;;;;;36.15;26.13;;;19.60;99.90;;;;;;5126573;28;20181;-68
2021/09/17 09:49:07;;;;;;;33.83;25.02;;;19.60;99.90;;;;;;5126935;28;20151;-69
2021/09/17 09:51:52;;;;;;;38.72;26.00;;;19.60;99.90;;;;;;5126837;28;20166;-68
2021/09/17 09:54:19;;;;;;;35.17;25.30;;;19.50;99.90;;;;;;5126666;28;20166;-69
2021/09/17 09:56:46;;;;;;;36.40;25.17;;;19.50;99.90;;;;;;5126209;28;20205;-69
2021/09/17 09:59:12;;;;;;;34.97;25.27;;;19.60;99.90;;;;;;5126876;28;20147;-68
2021/09/17 10:01:39;;;;;;;32.58;21.75;;;19.80;99.90;;;;;;5108503;28;20211;-69
2021/09/17 10:04:07;;;;;;;33.70;22.02;;;19.80;99.90;;;;;;5126697;28;20214;-68
2021/09/17 10:06:37;;;;;;;31.00;21.85;;;20.00;99.90;;;;;;5126395;28;20178;-69
2021/09/17 10:09:09;;;;;;;30.30;22.05;;;20.20;99.90;;;;;;5126564;28;20460;-68
2021/09/17 10:11:37;;;;;;;31.48;21.67;;;20.40;99.90;;;;;;5107985;28;20166;-69
2021/09/17 10:14:06;;;;;;;32.03;22.15;;;20.60;99.90;;;;;;5126526;28;20199;-68
2021/09/17 10:16:35;;;;;;;32.70;21.92;;;20.60;99.90;;;;;;5128806;28;20180;-68
2021/09/17 10:19:01;;;;;;;33.63;21.13;;;20.60;99.90;;;;;;5130808;28;20161;-68
2021/09/17 10:21:45;;;;;;;30.73;21.33;;;20.80;99.90;;;;;;5130827;28;20250;-68
2021/09/17 10:24:26;;;;;;;27.55;19.92;;;21.00;99.90;;;;;;5130815;28;20159;-69
2021/09/17 10:27:12;;;;;;;29.63;20.60;;;20.90;99.90;;;;;;5129923;28;20639;-68
2021/09/17 10:29:38;;;;;;;25.35;18.77;;;21.10;99.90;;;;;;5112092;28;20205;-68
2021/09/17 10:32:06;;;;;;;20.02;15.07;;;21.30;99.90;;;;;;5130572;28;20163;-69
2021/09/17 10:34:41;;;;;;;24.23;17.58;;;21.20;99.90;;;;;;5112075;28;20234;-68
2021/09/17 10:37:09;;;;;;;27.67;19.48;;;21.50;99.90;;;;;;5130211;28;20246;-68
2021/09/17 10:39:36;;;;;;;27.80;18.85;;;21.50;99.90;;;;;;5130408;28;20194;-68
2021/09/17 10:42:16;;;;;;;24.92;15.60;;;21.60;99.90;;;;;;5130048;28;20166;-68
2021/09/17 10:45:01;;;;;;;30.20;17.80;;;21.50;99.90;;;;;;5112031;28;20163;-69
2021/09/17 10:47:45;;;;;;;27.02;16.67;;;21.50;99.90;;;;;;5111892;28;20178;-68
2021/09/17 10:50:14;;;;;;;30.98;19.15;;;21.90;99.90;;;;;;5130133;28;20167;-69
2021/09/17 10:52:42;;;;;;;27.92;18.05;;;21.80;99.90;;;;;;5130184;28;20167;-68
2021/09/17 10:55:09;;;;;;;31.85;18.10;;;21.80;99.90;;;;;;5111375;28;20167;-69
2021/09/17 10:58:20;;;;;;;26.20;18.08;;;21.70;99.90;;;;;;5129480;28;20198;-69
2021/09/17 11:00:55;;;;;;;34.58;19.20;;;21.70;99.90;;;;;;5123161;28;20185;-69
2021/09/17 11:03:47;;;;;;;28.35;18.60;;;21.60;99.90;;;;;;5129762;28;20182;-69
2021/09/17 11:06:28;;;;;;;26.08;17.75;;;22.10;99.90;;;;;;5123032;28;20193;-69
2021/09/17 11:08:58;;;;;;;22.90;16.05;;;22.10;99.90;;;;;;5129284;28;20214;-69
2021/09/17 11:11:25;;;;;;;24.17;16.63;;;22.00;99.90;;;;;;5128484;28;20166;-69
2021/09/17 11:13:53;;;;;;;29.00;18.70;;;22.40;99.90;;;;;;5128445;28;20171;-69
2021/09/17 11:16:19;;;;;;;24.08;17.05;;;22.30;99.90;;;;;;5128185;28;20210;-69
2021/09/17 11:18:59;;;;;;;23.48;16.33;;;22.30;99.90;;;;;;5128530;28;20155;-68
2021/09/17 11:21:24;;;;;;;26.00;15.52;;;22.60;99.90;;;;;;5128332;28;20165;-69
2021/09/17 11:23:53;;;;;;;23.95;16.20;;;22.90;99.90;;;;;;5128513;28;20190;-69
2021/09/17 11:26:22;;;;;;;24.48;16.05;;;23.20;99.90;;;;;;5127628;28;20249;-69
2021/09/17 11:28:58;;;;;;;24.98;16.15;;;23.00;99.90;;;;;;5127864;28;20179;-69
2021/09/17 11:31:31;;;;;;;21.08;15.82;;;22.90;99.90;;;;;;5128524;28;20333;-69
2021/09/17 11:33:58;;;;;;;27.10;17.10;;;22.70;99.90;;;;;;5128132;28;20150;-69
2021/09/17 11:36:38;;;;;;;29.25;16.17;;;23.10;99.90;;;;;;5109627;28;20218;-69
2021/09/17 11:39:38;;;;;;;25.83;16.48;;;23.70;99.90;;;;;;5109962;28;20162;-69
2021/09/17 11:42:07;;;;;;;24.90;16.30;;;23.90;99.90;;;;;;5127915;28;20230;-69
2021/09/17 11:44:43;;;;;;;24.38;16.40;;;23.50;99.90;;;;;;5109820;28;20197;-70
2021/09/17 11:47:13;;;;;;;22.95;16.50;;;23.30;99.90;;;;;;5127846;28;20243;-69
2021/09/17 11:49:42;;;;;;;24.77;17.15;;;23.20;99.90;;;;;;5128033;28;20163;-69
2021/09/17 11:52:10;;;;;;;19.65;15.57;;;23.40;99.90;;;;;;5127930;28;20643;-69
2021/09/17 11:54:36;;;;;;;22.33;16.10;;;23.40;99.90;;;;;;5109369;28;20166;-70
2021/09/17 11:57:05;;;;;;;23.65;16.00;;;23.50;99.90;;;;;;5127098;28;20193;-69
2021/09/17 11:59:42;;;;;;;22.48;15.90;;;24.10;99.90;;;;;;5127615;28;20168;-69
2021/09/17 12:02:16;;;;;;;21.88;15.38;;;24.20;99.90;;;;;;5109315;28;20162;-70
2021/09/17 12:04:47;;;;;;;22.17;16.00;;;23.70;99.90;;;;;;5127820;28;20142;-69
2021/09/17 12:07:14;;;;;;;19.08;14.57;;;23.80;99.90;;;;;;5127585;28;20166;-69
2021/09/17 12:09:40;;;;;;;22.63;15.23;;;23.90;99.90;;;;;;5084485;28;1234175;-69
2021/09/17 12:12:06;;;;;;;21.10;16.05;;;24.00;99.90;;;;;;5128358;28;20187;-70
2021/09/17 12:14:32;;;;;;;18.25;14.00;;;24.00;99.90;;;;;;5128426;28;20603;-69
2021/09/17 12:17:05;;;;;;;19.10;14.20;;;24.40;99.90;;;;;;5128153;28;20179;-69
2021/09/17 12:19:55;;;;;;;25.63;15.93;;;25.00;99.90;;;;;;5128481;28;20512;-69
2021/09/17 12:22:36;;;;;;;19.58;13.88;;;25.10;99.90;;;;;;5109623;28;20159;-69
2021/09/17 12:25:07;;;;;;;20.23;15.18;;;25.30;99.90;;;;;;5127447;28;20444;-69
2021/09/17 12:27:34;;;;;;;19.95;14.68;;;25.20;99.90;;;;;;5127741;28;20198;-69
2021/09/17 12:30:03;;;;;;;18.23;13.55;;;24.70;99.90;;;;;;5109957;28;20174;-69